sensor_id;sensor_type;location;lat;lon;timestamp;pressure;altitude;pressure_sealevel;temperature;humidity
4410;BME280;2218;51.408;7.208;2024-02-21T00:02:23;100463.88;;;19.47;40.89
4410;BME280;2218;51.408;7.208;2024-02-21T00:04:50;100447.31;;;19.45;40.84
4410;BME280;2218;51.408;7.208;2024-02-21T00:07:16;100452.56;;;19.45;41.16
4410;BME280;2218;51.408;7.208;2024-02-21T00:09:43;100443.88;;;19.43;40.98
4410;BME280;2218;51.408;7.208;2024-02-21T00:12:12;100436.94;;;19.42;40.91
4410;BME280;2218;51.408;7.208;2024-02-21T00:14:39;100425.53;;;19.41;41.06
4410;BME280;2218;51.408;7.208;2024-02-21T00:17:07;100441.34;;;19.41;41.24
4410;BME280;2218;51.408;7.208;2024-02-21T00:19:34;100427.41;;;19.39;41.23
4410;BME280;2218;51.408;7.208;2024-02-21T00:22:01;100418.66;;;19.38;41.01
4410;BME280;2218;51.408;7.208;2024-02-21T00:24:29;100416.84;;;19.39;41.38
4410;BME280;2218;51.408;7.208;2024-02-21T00:26:56;100414.31;;;19.37;41.18
4410;BME280;2218;51.408;7.208;2024-02-21T00:29:24;100410.00;;;19.36;41.09
4410;BME280;2218;51.408;7.208;2024-02-21T00:31:51;100396.81;;;19.36;41.39
4410;BME280;2218;51.408;7.208;2024-02-21T00:34:18;100396.06;;;19.34;41.14
4410;BME280;2218;51.408;7.208;2024-02-21T00:36:45;100391.72;;;19.33;41.19
4410;BME280;2218;51.408;7.208;2024-02-21T00:39:12;100383.81;;;19.33;41.13
4410;BME280;2218;51.408;7.208;2024-02-21T00:41:39;100392.66;;;19.32;41.14
4410;BME280;2218;51.408;7.208;2024-02-21T00:44:06;100379.47;;;19.32;41.22
4410;BME280;2218;51.408;7.208;2024-02-21T00:46:34;100377.78;;;19.31;41.29
4410;BME280;2218;51.408;7.208;2024-02-21T00:49:01;100376.94;;;19.31;41.27
4410;BME280;2218;51.408;7.208;2024-02-21T00:51:28;100376.94;;;19.31;41.42
4410;BME280;2218;51.408;7.208;2024-02-21T00:53:55;100379.69;;;19.29;41.11
4410;BME280;2218;51.408;7.208;2024-02-21T00:56:22;100381.53;;;19.27;41.43
4410;BME280;2218;51.408;7.208;2024-02-21T00:58:48;100363.94;;;19.28;41.40
4410;BME280;2218;51.408;7.208;2024-02-21T01:01:21;100366.56;;;19.28;41.46
4410;BME280;2218;51.408;7.208;2024-02-21T01:03:50;100361.41;;;19.26;41.43
4410;BME280;2218;51.408;7.208;2024-02-21T01:06:19;100362.34;;;19.25;41.51
4410;BME280;2218;51.408;7.208;2024-02-21T01:08:46;100346.53;;;19.25;41.42
4410;BME280;2218;51.408;7.208;2024-02-21T01:11:13;100351.81;;;19.25;41.32
4410;BME280;2218;51.408;7.208;2024-02-21T01:13:41;100347.44;;;19.24;41.53
4410;BME280;2218;51.408;7.208;2024-02-21T01:16:08;100337.84;;;19.23;41.36
4410;BME280;2218;51.408;7.208;2024-02-21T01:18:37;100329.94;;;19.23;41.34
4410;BME280;2218;51.408;7.208;2024-02-21T01:21:07;100327.31;;;19.23;41.37
4410;BME280;2218;51.408;7.208;2024-02-21T01:23:36;100328.25;;;19.22;41.39
4410;BME280;2218;51.408;7.208;2024-02-21T01:26:04;100329.19;;;19.21;41.64
4410;BME280;2218;51.408;7.208;2024-02-21T01:28:33;100323.94;;;19.21;41.42
4410;BME280;2218;51.408;7.208;2024-02-21T01:31:00;100324.88;;;19.20;41.58
4410;BME280;2218;51.408;7.208;2024-02-21T01:33:27;100316.03;;;19.21;41.67
4410;BME280;2218;51.408;7.208;2024-02-21T01:36:00;100316.13;;;19.20;41.72
4410;BME280;2218;51.408;7.208;2024-02-21T01:38:28;100304.72;;;19.19;41.65
4410;BME280;2218;51.408;7.208;2024-02-21T01:40:56;100303.88;;;19.19;41.58
4410;BME280;2218;51.408;7.208;2024-02-21T01:43:23;100289.94;;;19.17;41.57
4410;BME280;2218;51.408;7.208;2024-02-21T01:45:53;100302.19;;;19.18;41.63
4410;BME280;2218;51.408;7.208;2024-02-21T01:48:22;100304.81;;;19.18;41.63
4410;BME280;2218;51.408;7.208;2024-02-21T01:50:51;100297.00;;;19.16;41.36
4410;BME280;2218;51.408;7.208;2024-02-21T01:53:21;100303.22;;;19.15;41.60
4410;BME280;2218;51.408;7.208;2024-02-21T01:55:50;100297.09;;;19.15;41.52
4410;BME280;2218;51.408;7.208;2024-02-21T01:58:19;100289.19;;;19.15;41.72
4410;BME280;2218;51.408;7.208;2024-02-21T02:00:48;100289.28;;;19.13;41.60
4410;BME280;2218;51.408;7.208;2024-02-21T02:03:16;100289.28;;;19.13;41.43
4410;BME280;2218;51.408;7.208;2024-02-21T02:05:44;100285.69;;;19.14;41.72
4410;BME280;2218;51.408;7.208;2024-02-21T02:08:12;100282.31;;;19.12;41.58
4410;BME280;2218;51.408;7.208;2024-02-21T02:10:40;100278.94;;;19.10;41.60
4410;BME280;2218;51.408;7.208;2024-02-21T02:13:09;100283.25;;;19.11;41.71
4410;BME280;2218;51.408;7.208;2024-02-21T02:15:39;100276.31;;;19.10;41.55
4410;BME280;2218;51.408;7.208;2024-02-21T02:18:06;100269.31;;;19.09;41.84
4410;BME280;2218;51.408;7.208;2024-02-21T02:20:33;100272.88;;;19.08;41.58
4410;BME280;2218;51.408;7.208;2024-02-21T02:23:07;100268.47;;;19.08;41.51
4410;BME280;2218;51.408;7.208;2024-02-21T02:25:39;100261.50;;;19.07;41.91
4410;BME280;2218;51.408;7.208;2024-02-21T02:28:07;100246.66;;;19.06;41.87
4410;BME280;2218;51.408;7.208;2024-02-21T02:30:35;100237.78;;;19.07;41.68
4410;BME280;2218;51.408;7.208;2024-02-21T02:33:03;100239.69;;;19.05;41.93
4410;BME280;2218;51.408;7.208;2024-02-21T02:35:31;100241.38;;;19.06;41.71
4410;BME280;2218;51.408;7.208;2024-02-21T02:37:58;100240.53;;;19.06;41.75
4410;BME280;2218;51.408;7.208;2024-02-21T02:40:25;100222.16;;;19.04;41.90
4410;BME280;2218;51.408;7.208;2024-02-21T02:42:53;100219.63;;;19.03;41.88
4410;BME280;2218;51.408;7.208;2024-02-21T02:45:23;100217.00;;;19.03;41.72
4410;BME280;2218;51.408;7.208;2024-02-21T02:47:52;100202.97;;;19.02;42.13
4410;BME280;2218;51.408;7.208;2024-02-21T02:50:20;100195.06;;;19.02;41.81
4410;BME280;2218;51.408;7.208;2024-02-21T02:52:47;100196.88;;;19.02;41.92
4410;BME280;2218;51.408;7.208;2024-02-21T02:55:14;100194.34;;;19.00;41.96
4410;BME280;2218;51.408;7.208;2024-02-21T02:57:42;100191.59;;;19.02;41.82
4410;BME280;2218;51.408;7.208;2024-02-21T03:00:12;100195.91;;;19.03;41.95
4410;BME280;2218;51.408;7.208;2024-02-21T03:02:41;100187.84;;;19.06;41.81
4410;BME280;2218;51.408;7.208;2024-02-21T03:05:13;100184.09;;;19.10;41.55
4410;BME280;2218;51.408;7.208;2024-02-21T03:07:41;100192.75;;;19.12;41.69
4410;BME280;2218;51.408;7.208;2024-02-21T03:10:09;100207.53;;;19.15;41.66
4410;BME280;2218;51.408;7.208;2024-02-21T03:12:37;100212.59;;;19.18;41.80
4410;BME280;2218;51.408;7.208;2024-02-21T03:15:06;100206.31;;;19.20;41.50
4410;BME280;2218;51.408;7.208;2024-02-21T03:17:35;100197.34;;;19.23;41.27
4410;BME280;2218;51.408;7.208;2024-02-21T03:20:02;100207.78;;;19.24;41.31
4410;BME280;2218;51.408;7.208;2024-02-21T03:22:31;100204.22;;;19.25;41.41
4410;BME280;2218;51.408;7.208;2024-02-21T03:24:59;100190.09;;;19.26;41.35
4410;BME280;2218;51.408;7.208;2024-02-21T03:27:26;100181.25;;;19.27;41.48
4410;BME280;2218;51.408;7.208;2024-02-21T03:29:53;100167.97;;;19.29;41.18
4410;BME280;2218;51.408;7.208;2024-02-21T03:32:20;100162.69;;;19.29;41.12
4410;BME280;2218;51.408;7.208;2024-02-21T03:34:48;100155.66;;;19.29;41.38
4410;BME280;2218;51.408;7.208;2024-02-21T03:37:15;100157.34;;;19.30;41.13
4410;BME280;2218;51.408;7.208;2024-02-21T03:39:43;100159.03;;;19.31;41.36
4410;BME280;2218;51.408;7.208;2024-02-21T03:42:10;100161.69;;;19.31;41.31
4410;BME280;2218;51.408;7.208;2024-02-21T03:44:37;100156.41;;;19.31;41.17
4410;BME280;2218;51.408;7.208;2024-02-21T03:47:04;100158.09;;;19.32;41.23
4410;BME280;2218;51.408;7.208;2024-02-21T03:49:31;100151.13;;;19.31;41.15
4410;BME280;2218;51.408;7.208;2024-02-21T03:51:59;100152.81;;;19.32;41.46
4410;BME280;2218;51.408;7.208;2024-02-21T03:54:26;100158.94;;;19.33;41.22
4410;BME280;2218;51.408;7.208;2024-02-21T03:56:53;100162.41;;;19.33;41.13
4410;BME280;2218;51.408;7.208;2024-02-21T03:59:20;100165.06;;;19.33;41.20
4410;BME280;2218;51.408;7.208;2024-02-21T04:01:51;100165.06;;;19.33;41.14
4410;BME280;2218;51.408;7.208;2024-02-21T04:04:20;100180.88;;;19.33;41.08
4410;BME280;2218;51.408;7.208;2024-02-21T04:06:47;100182.59;;;19.34;41.11
4410;BME280;2218;51.408;7.208;2024-02-21T04:09:16;100184.34;;;19.34;41.02
4410;BME280;2218;51.408;7.208;2024-02-21T04:11:43;100172.03;;;19.34;41.30
4410;BME280;2218;51.408;7.208;2024-02-21T04:14:10;100179.94;;;19.34;41.08
4410;BME280;2218;51.408;7.208;2024-02-21T04:16:38;100178.16;;;19.35;41.09
4410;BME280;2218;51.408;7.208;2024-02-21T04:19:05;100172.88;;;19.35;41.30
4410;BME280;2218;51.408;7.208;2024-02-21T04:21:32;100183.44;;;19.35;41.11
4410;BME280;2218;51.408;7.208;2024-02-21T04:23:59;100181.63;;;19.35;41.10
4410;BME280;2218;51.408;7.208;2024-02-21T04:26:28;100190.38;;;19.36;41.12
4410;BME280;2218;51.408;7.208;2024-02-21T04:28:56;100179.00;;;19.35;41.38
4410;BME280;2218;51.408;7.208;2024-02-21T04:31:23;100181.63;;;19.35;41.11
4410;BME280;2218;51.408;7.208;2024-02-21T04:33:51;100174.56;;;19.36;41.07
4410;BME280;2218;51.408;7.208;2024-02-21T04:36:18;100180.69;;;19.36;41.34
4410;BME280;2218;51.408;7.208;2024-02-21T04:38:45;100179.84;;;19.36;41.28
4410;BME280;2218;51.408;7.208;2024-02-21T04:41:12;100183.31;;;19.36;41.19
4410;BME280;2218;51.408;7.208;2024-02-21T04:43:40;100178.06;;;19.36;41.31
4410;BME280;2218;51.408;7.208;2024-02-21T04:46:07;100178.06;;;19.36;41.09
4410;BME280;2218;51.408;7.208;2024-02-21T04:48:35;100175.41;;;19.36;41.03
4410;BME280;2218;51.408;7.208;2024-02-21T04:51:02;100167.50;;;19.36;41.25
4410;BME280;2218;51.408;7.208;2024-02-21T04:53:30;100164.88;;;19.36;41.35
4410;BME280;2218;51.408;7.208;2024-02-21T04:55:57;100169.19;;;19.37;41.17
4410;BME280;2218;51.408;7.208;2024-02-21T04:58:24;100172.78;;;19.36;41.09
4410;BME280;2218;51.408;7.208;2024-02-21T05:00:52;100178.78;;;19.38;41.08
4410;BME280;2218;51.408;7.208;2024-02-21T05:03:20;100176.16;;;19.38;41.08
4410;BME280;2218;51.408;7.208;2024-02-21T05:05:48;100168.25;;;19.38;41.04
4410;BME280;2218;51.408;7.208;2024-02-21T05:08:15;100167.41;;;19.38;41.38
4410;BME280;2218;51.408;7.208;2024-02-21T05:10:42;100165.59;;;19.38;41.10
4410;BME280;2218;51.408;7.208;2024-02-21T05:13:09;100168.16;;;19.40;41.16
4410;BME280;2218;51.408;7.208;2024-02-21T05:15:36;100174.19;;;19.42;41.09
4410;BME280;2218;51.408;7.208;2024-02-21T05:18:05;100167.88;;;19.45;40.75
4410;BME280;2218;51.408;7.208;2024-02-21T05:20:31;100165.16;;;19.46;40.93
4410;BME280;2218;51.408;7.208;2024-02-21T05:22:58;100158.81;;;19.49;41.00
4410;BME280;2218;51.408;7.208;2024-02-21T05:25:25;100160.53;;;19.50;40.83
4410;BME280;2218;51.408;7.208;2024-02-21T05:27:52;100151.69;;;19.51;41.07
4410;BME280;2218;51.408;7.208;2024-02-21T05:30:19;100151.56;;;19.52;40.94
4410;BME280;2218;51.408;7.208;2024-02-21T05:32:46;100144.50;;;19.53;40.99
4410;BME280;2218;51.408;7.208;2024-02-21T05:35:15;100138.28;;;19.54;40.85
4410;BME280;2218;51.408;7.208;2024-02-21T05:37:42;100147.06;;;19.54;40.98
4410;BME280;2218;51.408;7.208;2024-02-21T05:40:10;100143.47;;;19.55;40.83
4410;BME280;2218;51.408;7.208;2024-02-21T05:42:39;100135.47;;;19.57;40.83
4410;BME280;2218;51.408;7.208;2024-02-21T05:45:06;100124.06;;;19.56;40.71
4410;BME280;2218;51.408;7.208;2024-02-21T05:47:34;100120.47;;;19.57;40.86
4410;BME280;2218;51.408;7.208;2024-02-21T05:50:01;100121.31;;;19.58;40.64
4410;BME280;2218;51.408;7.208;2024-02-21T05:52:29;100119.50;;;19.60;40.79
4410;BME280;2218;51.408;7.208;2024-02-21T05:54:56;100119.50;;;19.60;40.67
4410;BME280;2218;51.408;7.208;2024-02-21T05:57:23;100124.66;;;19.61;40.84
4410;BME280;2218;51.408;7.208;2024-02-21T05:59:50;100114.94;;;19.62;40.63
4410;BME280;2218;51.408;7.208;2024-02-21T06:02:18;100113.16;;;19.62;40.54
4410;BME280;2218;51.408;7.208;2024-02-21T06:04:45;100116.63;;;19.63;40.46
4410;BME280;2218;51.408;7.208;2024-02-21T06:07:13;100113.06;;;19.64;40.57
4410;BME280;2218;51.408;7.208;2024-02-21T06:09:41;100115.69;;;19.64;40.58
4410;BME280;2218;51.408;7.208;2024-02-21T06:12:08;100109.50;;;19.65;40.72
4410;BME280;2218;51.408;7.208;2024-02-21T06:14:35;100108.53;;;19.66;40.51
4410;BME280;2218;51.408;7.208;2024-02-21T06:17:03;100097.16;;;19.66;40.72
4410;BME280;2218;51.408;7.208;2024-02-21T06:19:30;100095.38;;;19.66;40.53
4410;BME280;2218;51.408;7.208;2024-02-21T06:21:56;100089.13;;;19.67;40.52
4410;BME280;2218;51.408;7.208;2024-02-21T06:24:23;100084.69;;;19.68;40.41
4410;BME280;2218;51.408;7.208;2024-02-21T06:26:52;100076.78;;;19.68;40.49
4410;BME280;2218;51.408;7.208;2024-02-21T06:29:19;100074.91;;;19.70;40.61
4410;BME280;2218;51.408;7.208;2024-02-21T06:31:45;100067.09;;;19.68;40.50
4410;BME280;2218;51.408;7.208;2024-02-21T06:34:12;100066.16;;;19.69;40.46
4410;BME280;2218;51.408;7.208;2024-02-21T06:36:39;100074.81;;;19.71;40.52
4410;BME280;2218;51.408;7.208;2024-02-21T06:39:06;100067.75;;;19.72;40.46
4410;BME280;2218;51.408;7.208;2024-02-21T06:41:34;100066.91;;;19.71;40.38
4410;BME280;2218;51.408;7.208;2024-02-21T06:44:02;100055.41;;;19.72;40.50
4410;BME280;2218;51.408;7.208;2024-02-21T06:46:30;100057.09;;;19.73;40.43
4410;BME280;2218;51.408;7.208;2024-02-21T06:48:59;100050.88;;;19.74;40.35
4410;BME280;2218;51.408;7.208;2024-02-21T06:51:27;100055.22;;;19.75;40.49
4410;BME280;2218;51.408;7.208;2024-02-21T06:53:55;100054.38;;;19.75;40.47
4410;BME280;2218;51.408;7.208;2024-02-21T06:56:24;100047.28;;;19.75;40.21
4410;BME280;2218;51.408;7.208;2024-02-21T06:58:54;100051.63;;;19.76;40.25
4410;BME280;2218;51.408;7.208;2024-02-21T07:01:22;100052.47;;;19.77;40.21
4410;BME280;2218;51.408;7.208;2024-02-21T07:03:50;100052.47;;;19.77;40.43
4410;BME280;2218;51.408;7.208;2024-02-21T07:06:17;100052.47;;;19.77;40.33
4410;BME280;2218;51.408;7.208;2024-02-21T07:08:43;100063.84;;;19.77;40.27
4410;BME280;2218;51.408;7.208;2024-02-21T07:11:11;100056.78;;;19.78;40.20
4410;BME280;2218;51.408;7.208;2024-02-21T07:13:38;100059.34;;;19.79;40.27
4410;BME280;2218;51.408;7.208;2024-02-21T07:16:06;100057.53;;;19.80;40.24
4410;BME280;2218;51.408;7.208;2024-02-21T07:18:35;100061.03;;;19.80;40.29
4410;BME280;2218;51.408;7.208;2024-02-21T07:21:02;100031.16;;;19.80;40.07
4410;BME280;2218;51.408;7.208;2024-02-21T07:23:29;100030.22;;;19.81;40.00
4410;BME280;2218;51.408;7.208;2024-02-21T07:25:56;100024.84;;;19.82;40.16
4410;BME280;2218;51.408;7.208;2024-02-21T07:28:24;100019.56;;;19.82;40.28
4410;BME280;2218;51.408;7.208;2024-02-21T07:30:51;100030.88;;;19.84;40.04
4410;BME280;2218;51.408;7.208;2024-02-21T07:33:17;100037.06;;;19.83;40.24
4410;BME280;2218;51.408;7.208;2024-02-21T07:35:46;100047.63;;;19.83;40.27
4410;BME280;2218;51.408;7.208;2024-02-21T07:38:13;100035.19;;;19.85;40.30
4410;BME280;2218;51.408;7.208;2024-02-21T07:40:40;100025.47;;;19.86;40.32
4410;BME280;2218;51.408;7.208;2024-02-21T07:43:07;100024.63;;;19.85;40.29
4410;BME280;2218;51.408;7.208;2024-02-21T07:45:34;100028.13;;;19.86;40.24
4410;BME280;2218;51.408;7.208;2024-02-21T07:48:01;100021.06;;;19.86;40.21
4410;BME280;2218;51.408;7.208;2024-02-21T07:50:28;100022.84;;;19.86;40.19
4410;BME280;2218;51.408;7.208;2024-02-21T07:52:57;100021.06;;;19.86;40.11
4410;BME280;2218;51.408;7.208;2024-02-21T07:55:24;100020.09;;;19.87;40.03
4410;BME280;2218;51.408;7.208;2024-02-21T07:57:52;100019.16;;;19.88;40.05
4410;BME280;2218;51.408;7.208;2024-02-21T08:00:20;100011.22;;;19.88;40.21
4410;BME280;2218;51.408;7.208;2024-02-21T08:02:48;100003.31;;;19.88;40.13
4410;BME280;2218;51.408;7.208;2024-02-21T08:05:15;99998.91;;;19.89;40.27
4410;BME280;2218;51.408;7.208;2024-02-21T08:07:42;100003.22;;;19.90;40.13
4410;BME280;2218;51.408;7.208;2024-02-21T08:10:11;99997.13;;;19.90;40.00
4410;BME280;2218;51.408;7.208;2024-02-21T08:12:38;99996.16;;;19.91;40.19
4410;BME280;2218;51.408;7.208;2024-02-21T08:15:06;99988.25;;;19.91;40.19
4410;BME280;2218;51.408;7.208;2024-02-21T08:17:34;99986.34;;;19.93;40.14
4410;BME280;2218;51.408;7.208;2024-02-21T08:20:01;99989.94;;;19.92;40.24
4410;BME280;2218;51.408;7.208;2024-02-21T08:22:28;99973.16;;;19.93;40.06
4410;BME280;2218;51.408;7.208;2024-02-21T08:24:55;99980.97;;;19.94;40.15
4410;BME280;2218;51.408;7.208;2024-02-21T08:27:23;99974.84;;;19.94;40.02
4410;BME280;2218;51.408;7.208;2024-02-21T08:29:50;99974.84;;;19.94;40.23
4410;BME280;2218;51.408;7.208;2024-02-21T08:32:17;99970.44;;;19.94;40.18
4410;BME280;2218;51.408;7.208;2024-02-21T08:34:44;99968.63;;;19.95;40.07
4410;BME280;2218;51.408;7.208;2024-02-21T08:37:12;99960.72;;;19.95;40.01
4410;BME280;2218;51.408;7.208;2024-02-21T08:39:39;99946.69;;;19.94;40.27
4410;BME280;2218;51.408;7.208;2024-02-21T08:42:06;99951.00;;;19.95;40.14
4410;BME280;2218;51.408;7.208;2024-02-21T08:44:34;99951.84;;;19.96;40.23
4410;BME280;2218;51.408;7.208;2024-02-21T08:47:01;99963.25;;;19.96;40.16
4410;BME280;2218;51.408;7.208;2024-02-21T08:49:29;99939.50;;;19.96;40.06
4410;BME280;2218;51.408;7.208;2024-02-21T08:51:57;99945.63;;;19.97;40.00
4410;BME280;2218;51.408;7.208;2024-02-21T08:54:24;99938.53;;;19.97;40.07
4410;BME280;2218;51.408;7.208;2024-02-21T08:56:51;99942.03;;;19.98;40.21
4410;BME280;2218;51.408;7.208;2024-02-21T08:59:18;99940.34;;;19.97;40.67
4410;BME280;2218;51.408;7.208;2024-02-21T09:01:46;99941.06;;;19.99;39.96
4410;BME280;2218;51.408;7.208;2024-02-21T09:04:13;99945.44;;;20.00;40.08
4410;BME280;2218;51.408;7.208;2024-02-21T09:06:41;99938.44;;;19.99;40.11
4410;BME280;2218;51.408;7.208;2024-02-21T09:09:08;99919.97;;;19.99;40.06
4410;BME280;2218;51.408;7.208;2024-02-21T09:11:36;99912.06;;;19.99;40.08
4410;BME280;2218;51.408;7.208;2024-02-21T09:14:03;99922.59;;;19.99;40.14
4410;BME280;2218;51.408;7.208;2024-02-21T09:16:31;99917.25;;;20.00;40.09
4410;BME280;2218;51.408;7.208;2024-02-21T09:19:00;99911.13;;;20.00;40.18
4410;BME280;2218;51.408;7.208;2024-02-21T09:21:27;99918.94;;;20.01;40.05
4410;BME280;2218;51.408;7.208;2024-02-21T09:23:54;99908.38;;;20.01;40.17
4410;BME280;2218;51.408;7.208;2024-02-21T09:26:21;99909.34;;;20.00;40.10
4410;BME280;2218;51.408;7.208;2024-02-21T09:28:48;99908.38;;;20.01;40.03
4410;BME280;2218;51.408;7.208;2024-02-21T09:31:16;99901.31;;;20.02;40.03
4410;BME280;2218;51.408;7.208;2024-02-21T09:33:43;99909.22;;;20.02;39.98
4410;BME280;2218;51.408;7.208;2024-02-21T09:36:11;99891.59;;;20.02;40.11
4410;BME280;2218;51.408;7.208;2024-02-21T09:38:39;99901.31;;;20.02;40.11
4410;BME280;2218;51.408;7.208;2024-02-21T09:41:15;99899.50;;;20.02;40.20
4410;BME280;2218;51.408;7.208;2024-02-21T09:43:44;99896.75;;;20.04;40.06
4410;BME280;2218;51.408;7.208;2024-02-21T09:46:17;99891.47;;;20.04;40.18
4410;BME280;2218;51.408;7.208;2024-02-21T09:49:12;99896.75;;;20.04;39.96
4410;BME280;2218;51.408;7.208;2024-02-21T09:51:43;99889.72;;;20.04;40.23
4410;BME280;2218;51.408;7.208;2024-02-21T09:54:11;99887.91;;;20.05;40.17
4410;BME280;2218;51.408;7.208;2024-02-21T09:56:38;99883.47;;;20.05;40.11
4410;BME280;2218;51.408;7.208;2024-02-21T09:59:05;99894.03;;;20.05;40.16
4410;BME280;2218;51.408;7.208;2024-02-21T10:01:33;99900.16;;;20.06;40.19
4410;BME280;2218;51.408;7.208;2024-02-21T10:04:00;99894.88;;;20.06;39.93
4410;BME280;2218;51.408;7.208;2024-02-21T10:06:28;99896.53;;;20.07;39.99
4410;BME280;2218;51.408;7.208;2024-02-21T10:08:57;99893.06;;;20.06;40.03
4410;BME280;2218;51.408;7.208;2024-02-21T10:11:23;99891.28;;;20.07;40.29
4410;BME280;2218;51.408;7.208;2024-02-21T10:13:51;99893.78;;;20.08;40.11
4410;BME280;2218;51.408;7.208;2024-02-21T10:16:18;99890.22;;;20.09;40.14
4410;BME280;2218;51.408;7.208;2024-02-21T10:18:45;99889.47;;;20.07;40.12
4410;BME280;2218;51.408;7.208;2024-02-21T10:21:13;99897.31;;;20.09;40.08
4410;BME280;2218;51.408;7.208;2024-02-21T10:23:44;99891.16;;;20.08;40.07
4410;BME280;2218;51.408;7.208;2024-02-21T10:26:14;99879.69;;;20.09;40.08
4410;BME280;2218;51.408;7.208;2024-02-21T10:28:41;99872.69;;;20.08;40.08
4410;BME280;2218;51.408;7.208;2024-02-21T10:31:11;99875.25;;;20.10;40.01
4410;BME280;2218;51.408;7.208;2024-02-21T10:33:54;99870.81;;;20.10;40.11
4410;BME280;2218;51.408;7.208;2024-02-21T10:36:22;99866.38;;;20.11;40.15
4410;BME280;2218;51.408;7.208;2024-02-21T10:38:50;99866.38;;;20.11;40.06
4410;BME280;2218;51.408;7.208;2024-02-21T10:41:20;99867.22;;;20.11;40.00
4410;BME280;2218;51.408;7.208;2024-02-21T10:43:51;99869.84;;;20.11;40.00
4410;BME280;2218;51.408;7.208;2024-02-21T10:46:20;99865.41;;;20.12;40.13
4410;BME280;2218;51.408;7.208;2024-02-21T10:49:01;99852.22;;;20.12;40.13
4410;BME280;2218;51.408;7.208;2024-02-21T10:51:34;99851.25;;;20.13;39.94
4410;BME280;2218;51.408;7.208;2024-02-21T10:54:22;99848.63;;;20.13;40.10
4410;BME280;2218;51.408;7.208;2024-02-21T10:56:56;99841.53;;;20.13;40.03
4410;BME280;2218;51.408;7.208;2024-02-21T10:59:25;99829.22;;;20.14;40.20
4410;BME280;2218;51.408;7.208;2024-02-21T11:01:52;99821.19;;;20.16;40.10
4410;BME280;2218;51.408;7.208;2024-02-21T11:04:19;99801.88;;;20.15;40.18
4410;BME280;2218;51.408;7.208;2024-02-21T11:06:47;99799.25;;;20.15;40.25
4410;BME280;2218;51.408;7.208;2024-02-21T11:09:15;99787.72;;;20.16;40.10
4410;BME280;2218;51.408;7.208;2024-02-21T11:11:44;99779.81;;;20.16;40.20
4410;BME280;2218;51.408;7.208;2024-02-21T11:14:20;99770.09;;;20.17;40.16
4410;BME280;2218;51.408;7.208;2024-02-21T11:16:48;99763.97;;;20.16;40.11
4410;BME280;2218;51.408;7.208;2024-02-21T11:19:21;99748.97;;;20.17;40.18
4410;BME280;2218;51.408;7.208;2024-02-21T11:21:49;99744.53;;;20.17;40.06
4410;BME280;2218;51.408;7.208;2024-02-21T11:24:26;99732.19;;;20.18;40.02
4410;BME280;2218;51.408;7.208;2024-02-21T11:26:54;99725.13;;;20.18;40.00
4410;BME280;2218;51.408;7.208;2024-02-21T11:29:26;99710.13;;;20.19;40.08
4410;BME280;2218;51.408;7.208;2024-02-21T11:31:54;99705.72;;;20.19;40.03
4410;BME280;2218;51.408;7.208;2024-02-21T11:34:22;99701.28;;;20.20;40.09
4410;BME280;2218;51.408;7.208;2024-02-21T11:36:50;99689.88;;;20.19;40.10
4410;BME280;2218;51.408;7.208;2024-02-21T11:39:19;99670.44;;;20.20;39.93
4410;BME280;2218;51.408;7.208;2024-02-21T11:41:47;99666.84;;;20.21;40.42
4410;BME280;2218;51.408;7.208;2024-02-21T11:44:14;99663.25;;;20.22;39.96
4410;BME280;2218;51.408;7.208;2024-02-21T11:46:43;99658.81;;;20.23;40.24
4410;BME280;2218;51.408;7.208;2024-02-21T11:49:10;99643.94;;;20.22;39.99
4410;BME280;2218;51.408;7.208;2024-02-21T11:51:37;99646.44;;;20.23;39.80
4410;BME280;2218;51.408;7.208;2024-02-21T11:54:06;99646.44;;;20.23;39.80
4410;BME280;2218;51.408;7.208;2024-02-21T11:56:34;99633.25;;;20.23;39.81
4410;BME280;2218;51.408;7.208;2024-02-21T11:59:01;99620.06;;;20.23;39.95
4410;BME280;2218;51.408;7.208;2024-02-21T12:01:29;99617.44;;;20.23;39.88
4410;BME280;2218;51.408;7.208;2024-02-21T12:03:58;99610.34;;;20.24;39.94
4410;BME280;2218;51.408;7.208;2024-02-21T12:06:25;99598.88;;;20.25;39.89
4410;BME280;2218;51.408;7.208;2024-02-21T12:08:52;99591.88;;;20.24;39.70
4410;BME280;2218;51.408;7.208;2024-02-21T12:11:21;99574.16;;;20.26;39.69
4410;BME280;2218;51.408;7.208;2024-02-21T12:13:59;99568.03;;;20.25;39.93
4410;BME280;2218;51.408;7.208;2024-02-21T12:16:27;99559.16;;;20.26;39.97
4410;BME280;2218;51.408;7.208;2024-02-21T12:18:56;99553.88;;;20.26;39.90
4410;BME280;2218;51.408;7.208;2024-02-21T12:21:26;99550.28;;;20.27;39.87
4410;BME280;2218;51.408;7.208;2024-02-21T12:23:54;99543.31;;;20.26;39.72
4410;BME280;2218;51.408;7.208;2024-02-21T12:26:21;99528.31;;;20.27;39.77
4410;BME280;2218;51.408;7.208;2024-02-21T12:28:48;99522.22;;;20.26;39.26
4410;BME280;2218;51.408;7.208;2024-02-21T12:31:16;99513.34;;;20.27;39.58
4410;BME280;2218;51.408;7.208;2024-02-21T12:33:43;99506.38;;;20.26;39.72
4410;BME280;2218;51.408;7.208;2024-02-21T12:36:10;99479.03;;;20.27;39.61
4410;BME280;2218;51.408;7.208;2024-02-21T12:38:38;99479.03;;;20.27;39.52
4410;BME280;2218;51.408;7.208;2024-02-21T12:41:05;99463.09;;;20.29;39.61
4410;BME280;2218;51.408;7.208;2024-02-21T12:43:33;99462.13;;;20.30;39.62
4410;BME280;2218;51.408;7.208;2024-02-21T12:46:01;99458.66;;;20.29;39.50
4410;BME280;2218;51.408;7.208;2024-02-21T12:48:28;99448.94;;;20.30;39.46
4410;BME280;2218;51.408;7.208;2024-02-21T12:50:55;99442.81;;;20.29;39.43
4410;BME280;2218;51.408;7.208;2024-02-21T12:53:22;99448.94;;;20.30;39.62
4410;BME280;2218;51.408;7.208;2024-02-21T12:55:51;99472.56;;;20.31;39.35
4410;BME280;2218;51.408;7.208;2024-02-21T12:58:18;99474.13;;;20.34;39.24
4410;BME280;2218;51.408;7.208;2024-02-21T13:00:47;99468.94;;;20.32;39.38
4410;BME280;2218;51.408;7.208;2024-02-21T13:03:14;99454.09;;;20.31;38.99
4410;BME280;2218;51.408;7.208;2024-02-21T13:05:41;99443.31;;;20.34;39.21
4410;BME280;2218;51.408;7.208;2024-02-21T13:08:09;99435.38;;;20.34;39.18
4410;BME280;2218;51.408;7.208;2024-02-21T13:10:37;99441.38;;;20.36;39.15
4410;BME280;2218;51.408;7.208;2024-02-21T13:13:05;99421.94;;;20.37;39.22
4410;BME280;2218;51.408;7.208;2024-02-21T13:15:32;99414.00;;;20.37;39.31
4410;BME280;2218;51.408;7.208;2024-02-21T13:18:01;99423.59;;;20.38;39.14
4410;BME280;2218;51.408;7.208;2024-02-21T13:20:28;99422.66;;;20.39;39.13